Terminal Aerodrome Forecast
Issued by NWS

Home | Current Version | Previous Version | Text Only | Print | Product List | Glossary On
Versions: 1 2 3 4 5 6 7 8 9 10 11 12 13 14 15 16
000
FTUS45 KGJT 231729
TAFCNY
TAF
KCNY 231729Z 2318/2418 13007KT P6SM SCT250
     FM232000 25006KT P6SM SCT250
     FM240200 VRB03KT P6SM SCT250
     FM240700 VRB03KT P6SM FEW250=

USA.gov is the U.S. government's official web portal to all federal, state and local government web resources and services.